Time;durP1;ratioP1;P1;durP2;ratioP2;P2;SDS_P1;SDS_P2;PMS_P1;PMS_P2;Temp;Humidity;BMP_temperature;BMP_pressure;BME280_temperature;BME280_humidity;BME280_pressure;Samples;Min_cycle;Max_cycle;Signal;HPM_P1;HPM_P2
2023/02/24 00:01:42;;;;;;;;;4.00;4.00;;;;;20.89;41.37;101463.44;5038091;28;45407;-72
2023/02/24 00:04:10;;;;;;;;;7.00;4.25;;;;;20.89;41.48;101463.44;5038001;28;45471;-72
2023/02/24 00:06:42;;;;;;;;;4.00;4.00;;;;;20.88;41.53;101454.66;5037968;28;45391;-72
2023/02/24 00:09:14;;;;;;;;;2.25;2.25;;;;;20.88;41.45;101456.47;5036612;28;47203;-73
2023/02/24 00:11:51;;;;;;;;;4.75;4.75;;;;;20.86;41.32;101454.00;5037485;28;45315;-73
2023/02/24 00:14:18;;;;;;;;;7.25;6.00;;;;;20.87;41.40;101457.50;5037802;28;45297;-70
2023/02/24 00:16:45;;;;;;;;;5.75;5.50;;;;;20.85;41.14;101449.69;5037718;28;45443;-72
2023/02/24 00:19:15;;;;;;;;;5.00;4.25;;;;;20.84;41.03;101446.22;5037513;28;46245;-72
2023/02/24 00:21:41;;;;;;;;;3.33;3.33;;;;;20.84;41.08;101451.50;5037521;28;45412;-73
2023/02/24 00:24:07;;;;;;;;;5.50;5.25;;;;;20.83;41.04;101441.94;5037653;28;45280;-72
2023/02/24 00:26:33;;;;;;;;;5.00;5.00;;;;;20.82;41.05;101440.25;5037287;28;45347;-72
2023/02/24 00:29:02;;;;;;;;;5.25;5.25;;;;;20.82;41.25;101434.97;5037400;28;47216;-73
2023/02/24 00:31:29;;;;;;;;;3.75;0.50;;;;;20.82;41.05;101436.78;5037486;28;45424;-73
2023/02/24 00:33:56;;;;;;;;;5.00;4.67;;;;;20.82;40.94;101431.50;5037441;28;45490;-72
2023/02/24 00:36:25;;;;;;;;;3.25;2.50;;;;;20.81;40.90;101433.31;5037290;28;45299;-72
2023/02/24 00:38:54;;;;;;;;;4.00;4.00;;;;;20.80;41.16;101426.38;5037198;28;46363;-72
2023/02/24 00:41:28;;;;;;;;;6.00;5.00;;;;;20.79;40.86;101422.06;5037029;28;45335;-72
2023/02/24 00:43:55;;;;;;;;;4.50;4.00;;;;;20.78;41.08;101420.41;5037076;28;45468;-72
2023/02/24 00:46:24;;;;;;;;;5.75;5.00;;;;;20.78;40.77;101422.22;5037432;28;45303;-72
2023/02/24 00:48:55;;;;;;;;;6.00;6.00;;;;;20.72;40.79;101408.66;5037172;28;47105;-72
2023/02/24 00:51:25;;;;;;;;;4.25;4.25;;;;;20.77;41.05;101409.97;5037208;28;45324;-72
2023/02/24 00:53:56;;;;;;;;;2.75;2.75;;;;;20.76;41.01;101417.09;5037400;28;45438;-72
2023/02/24 00:56:25;;;;;;;;;5.00;5.00;;;;;20.77;41.17;101402.03;5036898;28;45534;-71
2023/02/24 00:58:52;;;;;;;;;4.00;4.00;;;;;20.76;40.55;101406.53;5037167;28;46032;-73
2023/02/24 01:01:20;;;;;;;;;6.75;4.00;;;;;20.77;40.96;101402.03;5037109;28;45237;-72
2023/02/24 01:03:50;;;;;;;;;3.75;3.75;;;;;20.76;40.70;101400.41;5037036;28;45252;-72
2023/02/24 01:06:21;;;;;;;;;7.00;4.75;;;;;20.75;40.87;101404.84;5037085;28;45350;-73
2023/02/24 01:08:51;;;;;;;;;4.25;4.25;;;;;20.76;40.68;101392.47;5037014;28;45385;-72
2023/02/24 01:14:07;;;;;;;;;3.50;3.50;;;;;20.77;40.30;101394.09;5037032;28;45286;-72
2023/02/24 01:16:33;;;;;;;;;3.00;3.00;;;;;20.76;40.87;101392.47;5036838;28;45320;-72
2023/02/24 01:18:58;;;;;;;;;4.00;4.00;;;;;20.76;40.80;101382.72;5036241;28;47175;-72
2023/02/24 01:21:24;;;;;;;;;4.50;3.50;;;;;20.75;40.94;101378.41;5036933;28;45381;-72
2023/02/24 01:23:49;;;;;;;;;3.75;3.75;;;;;20.70;40.55;101370.97;5036705;28;45371;-72
2023/02/24 01:26:16;;;;;;;;;5.00;3.50;;;;;20.76;40.53;101373.97;5036527;28;45375;-72
2023/02/24 01:28:46;;;;;;;;;4.00;4.00;;;;;20.76;40.62;101366.03;5036646;28;46016;-72
2023/02/24 01:31:15;;;;;;;;;3.75;3.00;;;;;20.74;40.69;101361.72;5036261;28;45364;-72
2023/02/24 01:33:42;;;;;;;;;2.00;2.00;;;;;20.66;40.81;101350.28;5036592;28;45302;-72
2023/02/24 01:36:15;;;;;;;;;4.75;4.00;;;;;20.73;40.28;101360.06;5036369;28;45361;-73
2023/02/24 01:38:43;;;;;;;;;4.00;4.00;;;;;20.72;40.58;101368.97;5036027;28;45422;-72
2023/02/24 01:41:16;;;;;;;;;3.00;3.00;;;;;20.73;40.36;101360.06;5036490;28;45281;-72
2023/02/24 01:44:02;;;;;;;;;4.75;4.75;;;;;20.72;40.43;101360.22;5036039;28;45524;-72
2023/02/24 01:46:33;;;;;;;;;4.25;3.25;;;;;20.71;40.58;101359.38;5036503;28;45769;-72
2023/02/24 01:49:10;;;;;;;;;4.50;4.00;;;;;20.71;40.31;101359.38;5036193;28;48471;-72
2023/02/24 01:51:41;;;;;;;;;0.25;0.00;;;;;20.71;40.31;101362.03;5036178;28;45422;-72
2023/02/24 01:54:11;;;;;;;;;4.25;3.25;;;;;20.61;40.49;101343.63;5036145;28;45325;-72
2023/02/24 01:56:37;;;;;;;;;3.50;3.25;;;;;20.68;40.58;101356.25;5018258;28;45356;-72
2023/02/24 01:59:04;;;;;;;;;3.00;3.00;;;;;20.70;40.57;101351.63;5036025;28;46302;-72
2023/02/24 02:01:38;;;;;;;;;4.00;4.00;;;;;20.69;40.39;101350.78;5036071;28;45389;-72
2023/02/24 02:04:15;;;;;;;;;2.75;2.75;;;;;20.67;40.56;101344.81;5036172;28;45394;-72
2023/02/24 02:06:41;;;;;;;;;4.75;3.00;;;;;20.68;40.54;101346.50;5036025;28;45365;-72
2023/02/24 02:09:06;;;;;;;;;2.50;2.50;;;;;20.69;40.47;101347.31;5035710;28;45292;-72
2023/02/24 02:11:32;;;;;;;;;3.00;3.00;;;;;20.68;40.26;101345.66;5036158;28;45578;-72
2023/02/24 02:13:57;;;;;;;;;3.75;3.75;;;;;20.68;40.14;101350.94;5036053;28;45337;-72
2023/02/24 02:16:37;;;;;;;;;3.75;3.75;;;;;20.67;40.56;101336.91;5036100;28;45283;-72
2023/02/24 02:19:11;;;;;;;;;3.75;3.00;;;;;20.66;40.25;101340.50;5035781;28;46110;-72
2023/02/24 02:22:01;;;;;;;;;1.75;1.75;;;;;20.66;40.20;101337.88;5035887;28;45260;-72
2023/02/24 02:24:47;;;;;;;;;4.00;4.00;;;;;20.66;40.20;101332.59;5035761;28;45260;-72
2023/02/24 02:27:21;;;;;;;;;4.75;4.75;;;;;20.67;40.31;101328.13;5035388;28;45569;-73
2023/02/24 02:30:12;;;;;;;;;3.50;3.00;;;;;20.66;40.05;101326.50;5035533;28;45435;-71
2023/02/24 02:33:00;;;;;;;;;2.75;2.50;;;;;20.66;40.04;101324.66;5035009;28;45402;-71
2023/02/24 02:36:11;;;;;;;;;3.00;3.00;;;;;20.65;40.04;101325.66;5035511;28;45232;-73
2023/02/24 02:38:43;;;;;;;;;4.00;2.00;;;;;20.66;39.88;101319.38;4954185;28;45404;-72
2023/02/24 02:41:23;;;;;;;;;3.25;3.25;;;;;20.67;40.20;101312.25;4954304;28;45320;-72
2023/02/24 02:43:59;;;;;;;;;2.00;2.00;;;;;20.68;40.02;101313.94;4954125;28;45491;-72
2023/02/24 02:46:37;;;;;;;;;2.75;2.75;;;;;20.66;40.08;101308.78;4954597;28;45349;-72
2023/02/24 02:49:15;;;;;;;;;5.25;3.75;;;;;20.66;40.12;101306.13;4954496;28;45441;-72
2023/02/24 02:51:50;;;;;;;;;2.00;2.00;;;;;20.66;40.04;101300.84;4953921;28;46277;-73
2023/02/24 02:54:25;;;;;;;;;2.33;2.33;;;;;20.66;40.11;101294.75;4954284;28;45400;-72
2023/02/24 02:57:11;;;;;;;;;3.67;3.00;;;;;20.65;40.04;101296.56;4954498;28;45632;-72
2023/02/24 02:59:48;;;;;;;;;4.25;2.00;;;;;20.66;40.26;101297.41;4954368;28;45538;-72
2023/02/24 03:02:16;;;;;;;;;2.00;2.00;;;;;20.66;39.90;101287.63;4954243;28;46368;-72
2023/02/24 03:04:50;;;;;;;;;2.00;2.00;;;;;20.65;40.20;101287.81;4954128;28;45399;-72
2023/02/24 03:07:18;;;;;;;;;2.67;2.67;;;;;20.65;40.20;101287.81;4953997;28;45314;-71
2023/02/24 03:09:50;;;;;;;;;3.67;3.67;;;;;20.65;39.80;101290.44;4954222;28;45328;-72
2023/02/24 03:12:20;;;;;;;;;3.67;3.33;;;;;20.62;39.78;101276.56;4983557;28;45308;-72
2023/02/24 03:14:51;;;;;;;;;2.00;2.00;;;;;20.63;40.14;101275.56;5017131;28;45446;-72
2023/02/24 03:17:23;;;;;;;;;2.00;2.00;;;;;20.62;40.13;101273.91;5035252;28;45402;-72
2023/02/24 03:19:54;;;;;;;;;3.33;3.00;;;;;20.63;39.85;101272.91;5035162;28;45300;-72
2023/02/24 03:22:35;;;;;;;;;2.00;2.00;;;;;20.59;40.42;101266.31;5034909;28;46234;-72
2023/02/24 03:25:04;;;;;;;;;3.00;1.25;;;;;20.63;40.20;101270.28;5034998;28;45264;-72
2023/02/24 03:27:49;;;;;;;;;2.75;2.75;;;;;20.61;39.90;101266.97;5035322;28;45322;-72
2023/02/24 03:30:22;;;;;;;;;4.25;2.50;;;;;20.62;39.58;101259.88;5035031;28;45362;-72
2023/02/24 03:32:56;;;;;;;;;6.00;4.00;;;;;20.62;40.17;101267.81;5034825;28;47498;-72
2023/02/24 03:35:25;;;;;;;;;2.50;2.00;;;;;20.60;40.47;101257.41;5034237;28;45216;-72
2023/02/24 03:37:54;;;;;;;;;2.33;1.67;;;;;20.59;39.91;101258.38;5035030;28;45460;-72
2023/02/24 03:40:20;;;;;;;;;2.25;2.25;;;;;20.60;40.00;101257.41;5035054;28;45292;-72
2023/02/24 03:42:51;;;;;;;;;2.75;2.00;;;;;20.62;39.79;101259.88;5036072;28;46179;-72
2023/02/24 03:45:17;;;;;;;;;3.50;3.00;;;;;20.60;39.78;101253.91;5038050;28;45362;-72
2023/02/24 03:47:46;;;;;;;;;3.00;3.00;;;;;20.60;39.94;101248.63;5038167;28;45270;-72
2023/02/24 03:50:15;;;;;;;;;5.33;2.33;;;;;20.59;39.95;101247.81;5038043;28;45281;-72
2023/02/24 03:52:56;;;;;;;;;4.00;4.00;;;;;20.59;39.74;101254.91;5038082;28;45417;-72
2023/02/24 03:55:57;;;;;;;;;3.00;3.00;;;;;20.59;39.93;101247.81;5037993;28;45300;-72
2023/02/24 03:58:32;;;;;;;;;1.50;1.50;;;;;20.58;39.77;101250.63;5021541;28;45326;-72
2023/02/24 04:01:12;;;;;;;;;5.00;3.50;;;;;20.58;39.48;101250.63;5038080;28;45331;-72
2023/02/24 04:03:56;;;;;;;;;2.75;2.75;;;;;20.58;39.84;101243.50;5037543;28;46320;-72
2023/02/24 04:06:42;;;;;;;;;3.75;2.00;;;;;20.58;39.65;101238.19;5037912;28;45291;-72
2023/02/24 04:09:10;;;;;;;;;2.75;2.75;;;;;20.59;39.82;101237.22;5037856;28;45354;-72
2023/02/24 04:11:49;;;;;;;;;3.00;3.00;;;;;20.59;39.79;101237.22;5037963;28;45397;-72
2023/02/24 04:14:27;;;;;;;;;2.00;2.00;;;;;20.58;39.58;101243.50;5037672;28;47016;-72
2023/02/24 04:16:56;;;;;;;;;2.00;2.00;;;;;20.59;39.88;101231.09;5037820;28;45511;-72
2023/02/24 04:19:26;;;;;;;;;2.00;2.00;;;;;20.55;39.38;101229.78;5037555;28;45461;-72
2023/02/24 04:21:53;;;;;;;;;3.00;3.00;;;;;20.58;39.97;101238.19;5037772;28;45228;-72
2023/02/24 04:24:22;;;;;;;;;2.00;2.00;;;;;20.60;39.68;101241.53;5037235;28;46178;-72
2023/02/24 04:26:50;;;;;;;;;4.00;2.25;;;;;20.61;39.67;101247.63;5037647;28;45343;-72
2023/02/24 04:29:23;;;;;;;;;2.00;2.00;;;;;20.61;39.99;101243.19;5037640;28;45236;-72
2023/02/24 04:31:56;;;;;;;;;2.00;2.00;;;;;20.60;39.61;101238.91;5037208;28;45403;-73
2023/02/24 04:34:22;;;;;;;;;3.50;2.75;;;;;20.61;39.54;101250.28;5036067;28;45439;-72
2023/02/24 04:36:49;;;;;;;;;2.25;1.75;;;;;20.61;39.37;101243.19;5037242;28;45447;-72
2023/02/24 04:39:20;;;;;;;;;2.25;2.25;;;;;20.61;39.63;101248.47;5037532;28;45334;-73
2023/02/24 04:41:49;;;;;;;;;1.33;1.33;;;;;20.61;39.52;101237.06;5037544;28;45433;-72
2023/02/24 04:44:18;;;;;;;;;2.75;2.75;;;;;20.60;39.67;101241.53;5037003;28;46358;-72
2023/02/24 04:46:45;;;;;;;;;1.00;1.00;;;;;20.57;39.21;101231.28;5037285;28;45394;-72
2023/02/24 04:49:11;;;;;;;;;5.00;2.00;;;;;20.59;39.22;101236.41;5019076;28;45382;-72
2023/02/24 04:51:41;;;;;;;;;2.00;2.00;;;;;20.58;39.30;101224.97;5037356;28;45361;-72
2023/02/24 04:54:18;;;;;;;;;1.00;1.00;;;;;20.59;39.52;101223.19;5036296;28;47244;-72
2023/02/24 04:56:49;;;;;;;;;1.67;1.67;;;;;20.58;39.61;101222.34;5037022;28;45341;-73
2023/02/24 04:59:15;;;;;;;;;3.00;3.00;;;;;20.58;39.55;101219.69;5037139;28;45299;-72
2023/02/24 05:01:43;;;;;;;;;2.25;2.25;;;;;20.58;39.37;101221.53;5036771;28;45613;-73
2023/02/24 05:04:10;;;;;;;;;1.33;1.33;;;;;20.59;39.47;101215.25;5036778;28;46138;-72
2023/02/24 05:06:39;;;;;;;;;1.50;1.50;;;;;20.58;39.47;101224.97;5036971;28;45417;-72
2023/02/24 05:09:12;;;;;;;;;1.25;1.25;;;;;20.57;39.23;101222.50;5037023;28;45219;-72
2023/02/24 05:11:41;;;;;;;;;1.25;1.25;;;;;20.50;39.47;101212.59;5036969;28;45319;-72
2023/02/24 05:14:07;;;;;;;;;2.00;2.00;;;;;20.57;39.57;101220.69;5036669;28;46059;-72
2023/02/24 05:16:33;;;;;;;;;3.00;3.00;;;;;20.56;39.46;101224.31;5036405;28;45421;-72
2023/02/24 05:21:42;;;;;;;;;1.00;1.00;;;;;20.56;39.56;101221.69;5036824;28;45276;-72
2023/02/24 05:24:10;;;;;;;;;3.33;2.00;;;;;20.57;39.57;101222.50;5036357;28;47202;-72
2023/02/24 05:26:37;;;;;;;;;1.00;1.00;;;;;20.55;39.18;101225.34;5036713;28;45363;-72
2023/02/24 05:29:05;;;;;;;;;1.00;1.00;;;;;20.56;39.47;101220.84;5036735;28;45276;-72
2023/02/24 05:31:30;;;;;;;;;3.00;3.00;;;;;20.55;39.34;101222.69;5036145;28;45367;-72
2023/02/24 05:33:59;;;;;;;;;1.00;1.00;;;;;20.55;39.50;101220.03;5036302;28;46134;-72
2023/02/24 05:36:28;;;;;;;;;2.67;1.00;;;;;20.54;39.30;101210.44;5036334;28;45465;-72
2023/02/24 05:38:57;;;;;;;;;2.50;1.00;;;;;20.53;39.23;101211.44;5036664;28;45248;-72
2023/02/24 05:41:34;;;;;;;;;1.00;1.00;;;;;20.54;39.17;101207.81;5036482;28;45389;-72
2023/02/24 05:44:03;;;;;;;;;2.00;2.00;;;;;20.54;39.36;101207.81;5035991;28;47042;-72
2023/02/24 05:46:32;;;;;;;;;1.67;1.00;;;;;20.54;39.33;101212.25;5036061;28;45409;-72
2023/02/24 05:49:01;;;;;;;;;3.75;2.00;;;;;20.55;39.40;101201.53;5036434;28;45328;-72
2023/02/24 05:51:35;;;;;;;;;1.00;1.00;;;;;20.55;38.99;101204.19;5036261;28;45338;-72
2023/02/24 05:54:06;;;;;;;;;2.00;1.33;;;;;20.56;39.27;101202.34;5036221;28;47055;-72
2023/02/24 05:56:37;;;;;;;;;5.00;2.00;;;;;20.55;38.93;101198.91;5036094;28;45395;-73
2023/02/24 05:59:06;;;;;;;;;1.00;1.00;;;;;20.57;39.33;101196.91;5036101;28;45280;-72
2023/02/24 06:01:36;;;;;;;;;3.33;1.67;;;;;20.56;39.18;101205.81;5035833;28;45463;-72
2023/02/24 06:04:07;;;;;;;;;0.00;0.00;;;;;20.56;39.24;101199.69;5036062;28;45344;-72
2023/02/24 06:06:38;;;;;;;;;1.00;1.00;;;;;20.57;39.14;101198.72;5035004;28;45245;-72
2023/02/24 06:09:07;;;;;;;;;1.00;1.00;;;;;20.57;38.98;101191.63;5036041;28;45394;-72
2023/02/24 06:11:33;;;;;;;;;1.33;1.00;;;;;20.48;39.37;101182.03;5036140;28;45445;-72
2023/02/24 06:13:59;;;;;;;;;2.00;2.00;;;;;20.57;39.15;101199.56;5035560;28;46024;-72
2023/02/24 06:16:27;;;;;;;;;3.00;1.33;;;;;20.58;39.36;101195.91;5035886;28;45411;-73
2023/02/24 06:18:55;;;;;;;;;4.25;2.00;;;;;20.58;39.45;101195.09;5035980;28;45433;-72
2023/02/24 06:21:20;;;;;;;;;1.33;1.33;;;;;20.58;39.20;101192.47;5035943;28;45415;-72
2023/02/24 06:23:46;;;;;;;;;3.00;1.67;;;;;20.58;39.26;101184.53;5035577;28;46392;-72
2023/02/24 06:26:11;;;;;;;;;1.50;1.25;;;;;20.56;38.93;101167.97;5035822;28;45272;-72
2023/02/24 06:28:42;;;;;;;;;1.00;1.00;;;;;20.57;39.00;101169.63;5035576;28;45540;-72
2023/02/24 06:31:09;;;;;;;;;1.33;1.33;;;;;20.57;38.92;101174.94;5035693;28;45463;-72
2023/02/24 06:33:35;;;;;;;;;3.00;1.00;;;;;20.56;39.13;101165.34;5035508;28;47020;-73
2023/02/24 06:36:05;;;;;;;;;1.67;1.67;;;;;20.54;39.09;101162.03;5035458;28;45548;-72
2023/02/24 06:38:32;;;;;;;;;1.00;1.00;;;;;20.56;39.21;101167.97;5035716;28;45391;-72
2023/02/24 06:40:59;;;;;;;;;1.33;1.33;;;;;20.54;38.91;101168.16;5035704;28;45445;-72
2023/02/24 06:43:24;;;;;;;;;0.67;0.67;;;;;20.55;39.07;101166.34;5034983;28;47162;-72
2023/02/24 06:45:50;;;;;;;;;1.00;1.00;;;;;20.55;39.15;101167.16;5035398;28;45378;-72
2023/02/24 06:48:15;;;;;;;;;2.00;2.00;;;;;20.54;39.10;101173.44;5035806;28;45351;-71
2023/02/24 06:50:40;;;;;;;;;2.00;2.00;;;;;20.55;38.85;101176.91;5028863;28;45500;-72
2023/02/24 06:53:15;;;;;;;;;2.50;0.00;;;;;20.53;39.06;101174.44;5034257;28;46767;-70
2023/02/24 06:55:47;;;;;;;;;1.00;1.00;;;;;20.51;39.11;101179.88;5034235;28;45291;-72
2023/02/24 06:58:18;;;;;;;;;1.67;1.00;;;;;20.53;38.90;101177.09;5033921;28;45352;-71
2023/02/24 07:00:55;;;;;;;;;2.00;2.00;;;;;20.54;39.54;101180.53;5034958;28;45363;-71
2023/02/24 07:03:23;;;;;;;;;1.00;1.00;;;;;20.48;39.37;101180.19;5032439;28;47193;-71
2023/02/24 07:05:53;;;;;;;;;2.33;1.00;;;;;20.53;39.37;101182.38;5008093;28;45355;-72
2023/02/24 07:08:23;;;;;;;;;1.00;1.00;;;;;20.54;39.74;101181.38;5032592;28;45584;-72
2023/02/24 07:10:58;;;;;;;;;1.00;1.00;;;;;20.54;39.69;101181.38;5033932;28;45485;-72
2023/02/24 07:13:25;;;;;;;;;1.33;1.00;;;;;20.54;39.49;101186.66;5032577;28;47246;-72
2023/02/24 07:15:50;;;;;;;;;1.67;0.00;;;;;20.56;39.54;101186.47;5033703;28;45364;-71
2023/02/24 07:18:17;;;;;;;;;3.00;1.00;;;;;20.56;39.94;101191.75;5036680;28;45284;-71
2023/02/24 07:20:45;;;;;;;;;0.33;0.00;;;;;20.56;40.11;101189.13;5037928;28;45462;-72
2023/02/24 07:23:14;;;;;;;;;3.00;1.67;;;;;20.57;40.09;101186.34;5038139;28;46332;-73
2023/02/24 07:25:42;;;;;;;;;1.00;1.00;;;;;20.58;39.89;101189.81;5038153;28;45210;-71
2023/02/24 07:28:11;;;;;;;;;1.00;1.00;;;;;19.96;40.14;101095.63;4937518;28;46016;-74
2023/02/24 07:30:38;;;;;;;;;2.00;2.00;;;;;20.60;39.70;101190.47;5029514;28;46463;-75
2023/02/24 07:33:04;;;;;;;;;1.00;1.00;;;;;20.59;40.11;101191.44;5028463;28;45854;-74
2023/02/24 07:35:30;;;;;;;;;1.00;1.00;;;;;20.62;39.60;101180.56;5031929;28;45946;-74
2023/02/24 07:38:00;;;;;;;;;4.00;1.00;;;;;20.62;39.92;101189.31;5033170;28;45528;-73
2023/02/24 07:40:27;;;;;;;;;2.00;2.00;;;;;20.62;39.66;101181.38;5032132;28;45905;-74
2023/02/24 07:42:52;;;;;;;;;2.00;2.00;;;;;20.63;39.62;101183.03;5032529;28;46007;-74
2023/02/24 07:45:18;;;;;;;;;0.33;0.33;;;;;20.65;39.42;101182.06;5032758;28;45586;-74
2023/02/24 07:47:44;;;;;;;;;0.67;0.67;;;;;20.60;39.31;101164.03;5032278;28;45380;-74
2023/02/24 07:50:13;;;;;;;;;1.00;1.00;;;;;20.65;39.61;101167.03;5032399;28;45489;-74
2023/02/24 07:52:41;;;;;;;;;1.00;0.33;;;;;20.67;39.38;101178.25;5032710;28;46181;-75
2023/02/24 07:55:10;;;;;;;;;3.67;2.00;;;;;20.67;39.21;101166.84;5032794;28;45523;-75
2023/02/24 07:57:40;;;;;;;;;1.00;1.00;;;;;20.67;39.38;101167.69;5031075;28;45921;-74
2023/02/24 08:00:18;;;;;;;;;1.00;1.00;;;;;20.69;39.45;101159.56;5029304;28;45520;-74
2023/02/24 08:02:48;;;;;;;;;1.00;1.00;;;;;20.71;39.30;101158.41;5031986;28;47033;-74
2023/02/24 08:05:15;;;;;;;;;2.00;0.00;;;;;20.69;39.48;101160.41;5031782;28;45974;-74
2023/02/24 08:07:41;;;;;;;;;0.00;0.00;;;;;20.72;39.47;101157.44;5032762;28;45508;-75
2023/02/24 08:10:22;;;;;;;;;1.00;1.00;;;;;20.66;39.25;101149.34;5031969;28;45567;-74
2023/02/24 08:12:53;;;;;;;;;1.00;1.00;;;;;20.72;39.09;101160.09;5031473;28;47067;-74
2023/02/24 08:15:23;;;;;;;;;1.00;1.00;;;;;20.74;39.29;101163.38;5031751;28;45568;-75
2023/02/24 08:17:53;;;;;;;;;1.00;1.00;;;;;20.73;39.15;101153.81;5032138;28;45507;-74
2023/02/24 08:20:20;;;;;;;;;1.00;0.33;;;;;20.73;38.89;101150.34;5030752;28;45513;-74
2023/02/24 08:22:50;;;;;;;;;0.67;0.67;;;;;20.72;38.73;101149.50;5031676;28;47055;-74
2023/02/24 08:25:18;;;;;;;;;1.00;1.00;;;;;20.72;39.17;101154.78;5031258;28;46536;-74
2023/02/24 08:27:54;;;;;;;;;0.67;0.67;;;;;20.73;39.00;101153.81;5031718;28;45362;-74
2023/02/24 08:30:23;;;;;;;;;0.67;0.00;;;;;20.67;39.05;101140.41;5029526;28;45458;-75
2023/02/24 08:32:55;;;;;;;;;1.67;1.00;;;;;20.74;39.24;101139.59;5031533;28;47015;-74
2023/02/24 08:35:24;;;;;;;;;1.67;0.00;;;;;20.74;38.75;101144.88;5031164;28;45768;-74
2023/02/24 08:37:53;;;;;;;;;2.00;1.00;;;;;20.76;38.80;101142.09;5032122;28;45748;-74
2023/02/24 08:43:14;;;;;;;;;1.00;1.00;;;;;20.82;39.22;101137.94;5031509;28;45283;-74
2023/02/24 08:45:45;;;;;;;;;1.00;0.00;;;;;20.92;39.21;101146.53;5031855;28;45574;-74
2023/02/24 08:48:25;;;;;;;;;1.00;1.00;;;;;21.01;38.82;101147.41;5031600;28;45499;-74
2023/02/24 08:50:59;;;;;;;;;0.50;0.50;;;;;21.13;38.45;101147.06;5031905;28;45793;-74
2023/02/24 08:53:30;;;;;;;;;1.00;0.33;;;;;21.16;38.10;101152.84;5030483;28;46175;-73
2023/02/24 08:55:57;;;;;;;;;1.00;1.00;;;;;21.18;38.25;101144.75;5031920;28;45612;-74
2023/02/24 08:58:25;;;;;;;;;1.67;1.00;;;;;21.20;38.47;101149.88;5032021;28;45331;-74
2023/02/24 09:00:55;;;;;;;;;1.00;1.00;;;;;21.19;38.45;101135.81;5032145;28;45696;-74
2023/02/24 09:03:27;;;;;;;;;1.00;1.00;;;;;21.17;38.18;101146.56;5031324;28;46185;-74
2023/02/24 09:06:07;;;;;;;;;1.33;1.33;;;;;21.16;38.11;101144.91;5031837;28;45521;-74
2023/02/24 09:08:38;;;;;;;;;1.00;1.00;;;;;21.14;38.10;101144.25;5031895;28;45506;-72
2023/02/24 09:11:14;;;;;;;;;2.00;0.00;;;;;21.11;38.09;101143.75;5029079;28;46684;-73
2023/02/24 09:13:50;;;;;;;;;1.00;1.00;;;;;21.12;37.90;101142.75;5031376;28;46839;-73
2023/02/24 09:16:17;;;;;;;;;1.00;1.00;;;;;21.13;38.25;101147.06;5031222;28;45975;-73
2023/02/24 09:18:43;;;;;;;;;1.00;1.00;;;;;21.12;38.35;101148.06;5031612;28;45427;-73
2023/02/24 09:24:11;;;;;;;;;1.00;1.00;;;;;21.10;38.47;101135.00;4987705;28;45982;-72
2023/02/24 09:26:42;;;;;;;;;0.67;0.67;;;;;21.12;38.22;101132.19;4989032;28;45396;-72
2023/02/24 09:29:34;;;;;;;;;0.33;0.33;;;;;21.16;38.10;101131.66;4989791;28;45515;-72
2023/02/24 09:32:05;;;;;;;;;1.00;0.33;;;;;21.22;37.90;101119.59;4988251;28;45736;-71
2023/02/24 09:34:42;;;;;;;;;2.00;0.33;;;;;21.27;38.38;101116.44;4988425;28;46161;-71
2023/02/24 09:37:23;;;;;;;;;2.00;1.00;;;;;21.33;38.08;101122.88;4991066;28;45474;-72
2023/02/24 09:44:54;;;;;;;;;0.67;0.67;;;;;21.42;38.20;101105.97;5008697;28;46638;-72
2023/02/24 09:47:55;;;;;;;;;0.67;0.67;;;;;21.48;38.14;101107.13;5002728;28;45637;-72
2023/02/24 09:50:22;;;;;;;;;1.00;1.00;;;;;21.52;38.06;101117.19;4997991;28;46057;-72
2023/02/24 09:52:51;;;;;;;;;1.33;1.33;;;;;21.55;38.04;101117.84;4988454;28;45538;-72
2023/02/24 09:55:26;;;;;;;;;0.33;0.00;;;;;21.58;37.92;101122.81;4988268;28;45974;-72
2023/02/24 09:58:21;;;;;;;;;0.00;0.00;;;;;21.60;37.81;101123.47;4988782;28;45588;-72
2023/02/24 10:01:21;;;;;;;;;2.00;1.33;;;;;21.62;38.08;101119.66;5026101;28;46424;-72
2023/02/24 10:04:03;;;;;;;;;0.00;0.00;;;;;21.63;37.60;101115.19;5029494;28;45333;-72
2023/02/24 10:06:49;;;;;;;;;2.00;1.00;;;;;21.62;37.70;101108.25;5035467;28;46454;-71
2023/02/24 10:09:54;;;;;;;;;2.00;1.00;;;;;21.66;37.60;101106.91;5034742;28;45351;-72
2023/02/24 10:12:38;;;;;;;;;0.67;0.67;;;;;21.57;37.86;101086.75;5023375;28;45414;-72
2023/02/24 10:15:19;;;;;;;;;0.67;0.67;;;;;21.69;37.82;101101.28;5035832;28;45435;-72
2023/02/24 10:17:54;;;;;;;;;1.00;1.00;;;;;21.71;38.02;101109.03;5035598;28;45336;-72
2023/02/24 10:20:38;;;;;;;;;0.00;0.00;;;;;21.71;37.59;101101.91;5035544;28;45367;-72
2023/02/24 10:23:34;;;;;;;;;0.00;0.00;;;;;21.72;37.64;101108.88;5034215;28;45221;-72
2023/02/24 10:26:03;;;;;;;;;1.33;0.00;;;;;21.68;38.14;101093.47;5035733;28;45307;-74
2023/02/24 10:28:42;;;;;;;;;3.00;2.00;;;;;21.73;37.73;101104.38;5035319;28;46328;-74
2023/02/24 10:31:25;;;;;;;;;0.33;0.33;;;;;21.72;37.54;101100.94;5035423;28;45477;-74
2023/02/24 10:33:58;;;;;;;;;1.00;1.00;;;;;21.72;38.14;101100.94;5035129;28;45516;-74
2023/02/24 10:36:34;;;;;;;;;2.00;1.00;;;;;21.74;37.47;101092.81;5035031;28;45375;-74
2023/02/24 10:39:24;;;;;;;;;0.00;0.00;;;;;21.63;37.69;101071.00;5035155;28;46382;-74
2023/02/24 10:42:14;;;;;;;;;2.00;1.00;;;;;21.66;37.38;101082.25;5017600;28;45449;-73
2023/02/24 10:44:50;;;;;;;;;4.00;0.33;;;;;21.65;38.08;101077.97;5035265;28;45354;-73
2023/02/24 10:47:34;;;;;;;;;2.67;1.00;;;;;21.71;37.45;101083.38;5035298;28;45425;-73
2023/02/24 10:50:01;;;;;;;;;1.00;0.33;;;;;21.71;37.49;101086.03;5034790;28;45416;-74
2023/02/24 10:52:49;;;;;;;;;0.33;0.33;;;;;21.70;37.54;101078.28;5034329;28;45601;-72
2023/02/24 10:58:54;;;;;;;;;0.00;0.00;;;;;21.68;37.67;101065.19;5035320;28;45213;-74
2023/02/24 11:01:30;;;;;;;;;0.00;0.00;;;;;21.65;37.74;101051.47;5034221;28;45262;-73
2023/02/24 11:04:11;;;;;;;;;1.00;1.00;;;;;21.59;37.92;101039.75;5034113;28;45304;-74
2023/02/24 11:09:18;;;;;;;;;1.00;1.00;;;;;21.65;37.93;101049.63;5035151;28;45363;-74
2023/02/24 11:17:49;;;;;;;;;0.00;0.00;;;;;21.63;38.08;101035.75;5035044;28;45387;-73
2023/02/24 11:20:17;;;;;;;;;1.00;1.00;;;;;21.62;38.04;101039.41;5033920;28;45375;-73
2023/02/24 11:22:47;;;;;;;;;1.00;1.00;;;;;21.53;37.91;101009.50;5033113;28;45506;-74
2023/02/24 11:25:38;;;;;;;;;1.00;1.00;;;;;21.59;37.65;101011.47;5033930;28;45263;-73
2023/02/24 11:28:15;;;;;;;;;0.00;0.00;;;;;21.59;37.93;101016.75;5027501;28;45287;-73
2023/02/24 11:30:51;;;;;;;;;0.00;0.00;;;;;21.57;37.41;101018.72;5022276;28;45432;-73
2023/02/24 11:33:28;;;;;;;;;0.00;0.00;;;;;21.57;37.77;101007.34;5033822;28;45219;-74
2023/02/24 11:36:03;;;;;;;;;0.33;0.33;;;;;21.54;37.96;100999.72;5034533;28;45292;-74
2023/02/24 11:38:57;;;;;;;;;0.00;0.00;;;;;21.54;37.84;101003.22;5034864;28;45532;-73
2023/02/24 11:41:45;;;;;;;;;0.00;0.00;;;;;21.52;37.91;100990.13;5035027;28;45575;-73
2023/02/24 11:44:27;;;;;;;;;0.00;0.00;;;;;21.53;37.83;100990.97;5034098;28;47024;-73
2023/02/24 11:46:57;;;;;;;;;0.33;0.33;;;;;21.40;37.57;100973.00;5034797;28;45386;-74
2023/02/24 11:49:38;;;;;;;;;1.33;0.00;;;;;21.50;37.73;100986.00;5033340;28;45712;-74
2023/02/24 11:52:12;;;;;;;;;1.00;1.00;;;;;21.49;37.74;100979.88;5034817;28;45666;-71
2023/02/24 11:54:45;;;;;;;;;0.00;0.00;;;;;21.48;37.71;100966.81;5034679;28;46657;-73
2023/02/24 11:57:20;;;;;;;;;0.00;0.00;;;;;21.46;38.09;100968.84;5034724;28;45399;-75
2023/02/24 11:59:53;;;;;;;;;0.00;0.00;;;;;21.42;37.72;100960.41;5034678;28;45330;-75
2023/02/24 12:02:32;;;;;;;;;0.33;0.33;;;;;21.42;37.20;100957.75;5034468;28;45436;-74
2023/02/24 12:05:13;;;;;;;;;0.00;0.00;;;;;;;;5036266;28;45944;-75
2023/02/24 12:07:47;;;;;;;;;0.00;0.00;;;;;21.37;37.63;100958.28;5038034;28;45292;-75
2023/02/24 12:10:12;;;;;;;;;0.00;0.00;;;;;21.39;37.23;100956.28;5037993;28;45359;-75
2023/02/24 12:13:07;;;;;;;;;0.33;0.33;;;;;21.38;37.54;100957.28;5036836;28;45529;-75
2023/02/24 12:15:40;;;;;;;;;0.00;0.00;;;;;21.37;37.69;100952.97;5037681;28;46283;-75
2023/02/24 12:18:39;;;;;;;;;1.00;0.00;;;;;21.36;37.20;100948.69;5037516;28;45532;-75
2023/02/24 12:21:14;;;;;;;;;1.67;0.00;;;;;21.35;37.39;100946.22;5037883;28;45425;-75